Time;durP1;ratioP1;P1;durP2;ratioP2;P2;SDS_P1;SDS_P2;PMS_P1;PMS_P2;Temp;Humidity;BMP_temperature;BMP_pressure;BME280_temperature;BME280_humidity;BME280_pressure;Samples;Min_cycle;Max_cycle;Signal;HPM_P1;HPM_P2
2023/04/11 00:02:57;;;;;;;;;;;;;;;;;;;;;
2023/04/11 00:06:01;;;;;;;;;8.75;8.00;;;;;10.47;76.08;100739.41;146619;588;46038;-77
2023/04/11 00:09:03;;;;;;;;;9.50;9.50;;;;;10.50;76.66;100736.03;146619;578;46016;-76
2023/04/11 00:11:55;;;;;;;;;11.25;8.50;;;;;10.51;76.23;100732.66;146619;573;46021;-77
2023/04/11 00:14:52;;;;;;;;;8.00;7.25;;;;;10.53;75.67;100731.94;146615;645;46016;-74
2023/04/11 00:17:57;;;;;;;;;11.75;10.50;;;;;10.54;75.51;100727.63;146618;588;46020;-75
2023/04/11 00:21:02;;;;;;;;;9.75;9.00;;;;;10.56;75.09;100726.00;146617;636;46016;-77
2023/04/11 00:24:10;;;;;;;;;8.50;7.50;;;;;10.57;74.99;100722.59;146621;571;46020;-76
2023/04/11 00:27:07;;;;;;;;;9.50;8.00;;;;;9.24;75.17;100491.22;146616;599;46015;-76
2023/04/11 00:30:15;;;;;;;;;6.75;5.50;;;;;10.57;75.12;100720.00;146619;582;48010;-78
2023/04/11 00:33:21;;;;;;;;;10.75;7.75;;;;;10.55;74.33;100719.91;146616;577;46016;-78
2023/04/11 00:36:39;;;;;;;;;8.75;8.50;;;;;10.45;74.79;100711.59;146618;616;46021;-79
2023/04/11 00:39:38;;;;;;;;;8.00;6.75;;;;;10.53;74.44;100721.56;146618;746;46014;-78
2023/04/11 00:42:42;;;;;;;;;8.00;8.00;;;;;10.51;74.57;100712.81;146623;567;46011;-78
2023/04/11 00:45:56;;;;;;;;;7.75;7.00;;;;;10.39;73.10;100697.50;146618;619;46012;-76
2023/04/11 00:49:12;;;;;;;;;8.75;7.00;;;;;10.49;73.53;100714.41;146621;590;47010;-77
2023/04/11 00:52:12;;;;;;;;;13.25;7.75;;;;;10.44;73.72;100705.53;146616;665;46016;-76
2023/04/11 00:55:27;;;;;;;;;9.75;7.50;;;;;8.88;72.85;100425.47;146622;606;46010;-76
2023/04/11 00:58:19;;;;;;;;;9.50;6.50;;;;;10.49;73.76;100705.75;146618;573;45018;-75
2023/04/11 01:01:15;;;;;;;;;11.50;8.75;;;;;10.49;73.52;100705.75;146621;572;46010;-75
2023/04/11 01:04:19;;;;;;;;;6.25;6.25;;;;;10.50;73.89;100698.06;146616;617;47017;-75
2023/04/11 01:07:38;;;;;;;;;7.75;6.50;;;;;10.26;73.08;100657.91;146622;566;46012;-76
2023/04/11 01:10:40;;;;;;;;;6.00;6.00;;;;;10.46;73.30;100696.12;146615;626;47012;-77
2023/04/11 01:13:47;;;;;;;;;9.50;7.50;;;;;10.45;73.62;100696.06;146620;582;46010;-78
2023/04/11 01:16:59;;;;;;;;;;;;;;;;;;;;;
2023/04/11 01:19:52;;;;;;;;;5.75;5.00;;;;;10.40;73.69;100690.63;146616;583;46020;-77
2023/04/11 01:22:46;;;;;;;;;7.75;7.00;;;;;10.39;73.83;100694.03;146616;701;46919;-78
2023/04/11 01:25:40;;;;;;;;;7.00;5.75;;;;;10.37;73.65;100688.78;146622;583;46010;-77
2023/04/11 01:28:32;;;;;;;;;7.00;5.50;;;;;10.37;73.81;100683.59;146613;587;46017;-77
2023/04/11 01:31:51;;;;;;;;;8.50;7.25;;;;;10.36;73.59;100686.97;146619;587;46020;-77
2023/04/11 01:34:50;;;;;;;;;7.75;7.00;;;;;10.37;73.32;100688.78;146613;638;46017;-78
2023/04/11 01:37:48;;;;;;;;;6.25;4.50;;;;;10.37;73.11;100683.59;146622;630;46010;-78
2023/04/11 01:40:52;;;;;;;;;6.75;6.75;;;;;10.36;73.45;100676.63;146620;583;46016;-77
2023/04/11 01:44:07;;;;;;;;;8.00;8.00;;;;;10.28;72.44;100666.66;146626;569;46010;-77
2023/04/11 01:47:32;;;;;;;;;10.00;7.00;;;;;10.35;73.05;100668.78;146621;587;46035;-77
2023/04/11 01:50:34;;;;;;;;;9.00;7.00;;;;;10.32;74.03;100672.09;146624;666;46021;-81
2023/04/11 01:53:27;;;;;;;;;8.25;8.00;;;;;10.30;74.19;100671.13;146620;600;47016;-83
2023/04/11 01:56:30;;;;;;;;;8.50;7.25;;;;;10.30;73.33;100673.72;146622;572;46021;-85
2023/04/11 01:59:37;;;;;;;;;7.25;7.00;;;;;10.28;74.22;100667.56;146620;613;46016;-81
2023/04/11 02:02:35;;;;;;;;;11.50;9.00;;;;;10.29;73.91;100669.34;146628;624;46010;-81
2023/04/11 02:05:31;;;;;;;;;9.25;7.25;;;;;10.28;73.98;100664.97;146624;575;46012;-81
2023/04/11 02:08:28;;;;;;;;;18.00;14.00;;;;;10.25;73.40;100667.37;146622;586;46020;-78
2023/04/11 02:11:37;;;;;;;;;14.75;11.25;;;;;9.84;73.01;100603.94;146619;636;46013;-76
2023/04/11 02:15:05;;;;;;;;;14.75;12.00;;;;;10.22;74.10;100667.22;146624;563;46020;-76
2023/04/11 02:18:01;;;;;;;;;15.00;12.25;;;;;10.21;74.50;100669.72;146619;625;46016;-76
2023/04/11 02:21:05;;;;;;;;;;;;;;;;;;;;;
2023/04/11 02:24:19;;;;;;;;;12.75;11.50;;;;;10.17;74.57;100677.34;146620;642;46012;-76
2023/04/11 02:27:18;;;;;;;;;9.00;7.75;;;;;10.15;74.39;100681.53;146625;643;45037;-77
2023/04/11 02:30:22;;;;;;;;;10.00;9.00;;;;;7.95;73.19;100302.47;146623;581;46016;-77
2023/04/11 02:33:16;;;;;;;;;13.25;12.50;;;;;10.14;74.12;100684.06;146621;588;46020;-78
2023/04/11 02:36:17;;;;;;;;;18.75;14.25;;;;;10.13;73.97;100685.78;146619;577;46016;-78
2023/04/11 02:39:13;;;;;;;;;10.00;9.00;;;;;10.08;74.11;100668.19;146620;599;46020;-73
2023/04/11 02:42:09;;;;;;;;;12.75;11.75;;;;;10.13;73.60;100685.78;146623;626;46014;-72
2023/04/11 02:45:02;;;;;;;;;11.00;10.00;;;;;10.14;73.86;100678.88;146617;571;46034;-82
2023/04/11 02:48:08;;;;;;;;;12.50;10.50;;;;;9.95;73.43;100656.31;146616;715;46016;-77
2023/04/11 02:51:04;;;;;;;;;6.50;6.50;;;;;10.14;73.93;100691.84;146620;632;46010;-77
2023/04/11 02:54:05;;;;;;;;;9.00;9.00;;;;;10.16;74.33;100690.22;146617;627;46919;-77
2023/04/11 02:57:09;;;;;;;;;12.00;8.00;;;;;10.15;74.17;100685.84;146621;697;46021;-79
2023/04/11 03:00:05;;;;;;;;;10.00;8.75;;;;;10.16;74.30;100691.13;146616;572;46016;-79
2023/04/11 03:03:08;;;;;;;;;8.75;7.25;;;;;10.16;73.77;100685.03;146619;570;46020;-77
2023/04/11 03:06:03;;;;;;;;;12.00;8.75;;;;;10.15;73.74;100685.84;146618;646;46016;-77
2023/04/11 03:09:00;;;;;;;;;7.00;6.75;;;;;10.12;73.42;100686.59;146622;716;46020;-74
2023/04/11 03:12:23;;;;;;;;;;;;;;;;;;;;;
2023/04/11 03:15:21;;;;;;;;;12.00;10.00;;;;;10.07;73.93;100677.69;146616;628;46995;-76
2023/04/11 03:18:16;;;;;;;;;9.75;9.00;;;;;10.06;73.87;100691.44;146613;616;47017;-79
2023/04/11 03:21:13;;;;;;;;;10.50;8.50;;;;;10.04;74.21;100684.41;146618;577;46020;-77
2023/04/11 03:24:21;;;;;;;;;;;;;;;;;;;;;
2023/04/11 03:27:19;;;;;;;;;10.25;8.00;;;;;10.00;74.13;100685.94;146617;586;47012;-80
2023/04/11 03:30:51;;;;;;;;;11.50;10.00;;;;;10.01;73.62;100692.91;146619;672;46016;-81
2023/04/11 03:33:59;;;;;;;;;8.25;8.25;;;;;10.01;73.59;100685.13;146618;565;47011;-80
2023/04/11 03:37:02;;;;;;;;;11.50;10.00;;;;;10.00;74.04;100675.59;146616;569;46016;-81
2023/04/11 03:40:10;;;;;;;;;;;;;;;;;;;;;
2023/04/11 03:43:12;;;;;;;;;12.25;10.00;;;;;10.03;73.92;100680.94;146616;579;46016;-80
2023/04/11 03:46:10;;;;;;;;;13.50;10.50;;;;;10.04;73.63;100679.22;146619;606;46010;-80
2023/04/11 03:49:15;;;;;;;;;9.25;8.25;;;;;10.05;73.27;100684.47;146615;585;47014;-77
2023/04/11 03:52:26;;;;;;;;;11.50;11.25;;;;;9.98;73.30;100666.84;146622;599;46020;-77
2023/04/11 03:55:24;;;;;;;;;13.00;11.00;;;;;10.06;72.99;100681.09;146615;570;46017;-77
2023/04/11 03:58:17;;;;;;;;;12.75;11.50;;;;;10.08;73.04;100673.38;146619;578;45020;-79
2023/04/11 04:01:13;;;;;;;;;20.50;15.25;;;;;10.10;72.93;100671.78;146617;565;47012;-75
2023/04/11 04:04:09;;;;;;;;;12.50;10.00;;;;;10.11;73.23;100678.72;146617;586;45021;-74
2023/04/11 04:07:11;;;;;;;;;13.00;11.50;;;;;10.11;72.49;100673.53;146615;572;46014;-75
2023/04/11 04:10:21;;;;;;;;;13.75;8.75;;;;;10.06;72.89;100665.53;146619;606;46013;-77
2023/04/11 04:13:43;;;;;;;;;11.75;11.25;;;;;9.68;72.37;100585.81;146614;650;46917;-76
2023/04/11 04:16:36;;;;;;;;;14.50;10.50;;;;;10.19;73.21;100674.84;146621;618;46010;-77
2023/04/11 04:19:42;;;;;;;;;10.25;9.75;;;;;10.21;72.74;100680.09;146614;581;46017;-85
2023/04/11 04:22:56;;;;;;;;;17.25;15.00;;;;;8.67;72.46;100400.28;146619;699;46020;-86
2023/04/11 04:26:00;;;;;;;;;12.25;11.25;;;;;10.27;72.83;100678.72;146617;581;46014;-79
2023/04/11 04:29:08;;;;;;;;;10.75;10.00;;;;;10.29;72.60;100663.28;146617;600;46020;-83
2023/04/11 04:32:09;;;;;;;;;13.00;10.75;;;;;10.32;72.89;100673.81;146612;615;46017;-85
2023/04/11 04:35:30;;;;;;;;;;;;;;;;;;;;;
2023/04/11 04:38:46;;;;;;;;;13.50;11.25;;;;;10.37;72.26;100661.94;146614;621;46017;-86
2023/04/11 04:41:47;;;;;;;;;12.50;9.75;;;;;10.38;71.85;100663.75;146618;581;47010;-86
2023/04/11 04:44:42;;;;;;;;;9.25;9.00;;;;;10.41;72.00;100663.91;146619;595;46016;-86
2023/04/11 04:47:39;;;;;;;;;11.50;9.50;;;;;10.42;72.33;100657.91;146620;654;46021;-86
2023/04/11 04:50:44;;;;;;;;;11.75;11.00;;;;;10.44;72.65;100658.00;146616;597;47014;-86
2023/04/11 04:53:50;;;;;;;;;12.50;10.75;;;;;10.45;72.66;100659.75;146623;611;46020;-86
2023/04/11 04:56:53;;;;;;;;;11.00;9.00;;;;;10.44;73.00;100658.00;146619;663;46012;-83
2023/04/11 04:59:52;;;;;;;;;13.25;11.00;;;;;10.43;73.54;100659.66;146621;616;46010;-86
2023/04/11 05:02:57;;;;;;;;;11.50;10.75;;;;;10.45;73.49;100658.06;146617;676;46012;-85
2023/04/11 05:06:08;;;;;;;;;10.50;9.25;;;;;10.51;73.84;100655.78;146621;599;46010;-86
2023/04/11 05:09:15;;;;;;;;;12.25;10.00;;;;;10.59;73.67;100654.47;146618;600;46012;-86
2023/04/11 05:12:14;;;;;;;;;14.75;10.25;;;;;10.71;73.03;100653.28;146612;573;47010;-77
2023/04/11 05:15:22;;;;;;;;;11.00;10.25;;;;;9.11;72.39;100344.81;146616;592;47012;-81
2023/04/11 05:18:34;;;;;;;;;;;;;;;;;;;;;
2023/04/11 05:21:34;;;;;;;;;9.75;9.00;;;;;11.29;70.51;100656.09;146616;610;46016;-86
2023/04/11 05:24:34;;;;;;;;;12.75;9.00;;;;;11.48;69.98;100653.53;146621;601;46021;-79
2023/04/11 05:27:41;;;;;;;;;14.00;11.00;;;;;11.68;69.40;100656.16;146619;613;46034;-82
2023/04/11 05:30:47;;;;;;;;;12.25;8.00;;;;;11.81;68.03;100648.13;146620;604;46029;-74
2023/04/11 05:33:45;;;;;;;;;10.75;10.75;;;;;11.84;68.30;100649.94;146620;626;46030;-74
2023/04/11 05:36:54;;;;;;;;;9.25;9.25;;;;;11.78;68.28;100656.66;146619;570;46020;-74
2023/04/11 05:40:02;;;;;;;;;11.25;9.75;;;;;11.55;68.17;100614.03;146616;692;46014;-75
2023/04/11 05:43:07;;;;;;;;;;;;;;;;;;;;;
2023/04/11 05:46:23;;;;;;;;;9.50;8.50;;;;;9.47;68.82;100300.91;146619;596;48012;-81
2023/04/11 05:49:19;;;;;;;;;10.00;8.75;;;;;11.43;68.88;100652.44;146623;580;46020;-78
2023/04/11 05:52:03;;;;;;;;;11.50;10.00;;;;;11.30;69.77;100657.87;146701;564;45022;-78
2023/04/11 05:55:01;;;;;;;;;10.25;9.25;;;;;11.23;70.77;100656.69;146619;618;46016;-77
2023/04/11 05:57:56;;;;;;;;;10.50;10.50;;;;;11.12;70.18;100647.53;146625;614;46021;-81
2023/04/11 06:00:58;;;;;;;;;9.75;9.75;;;;;11.00;70.97;100642.62;146620;647;46014;-80
2023/04/11 06:04:00;;;;;;;;;12.00;9.75;;;;;10.92;71.38;100651.72;146626;683;46010;-79
2023/04/11 06:07:10;;;;;;;;;11.25;9.50;;;;;10.86;71.83;100656.63;146620;570;46016;-79
2023/04/11 06:10:14;;;;;;;;;12.50;11.50;;;;;10.80;72.72;100651.13;146625;587;46010;-83
2023/04/11 06:13:15;;;;;;;;;12.00;11.25;;;;;10.78;72.72;100656.25;146617;645;46917;-82
2023/04/11 06:16:35;;;;;;;;;;;;;;;;;;;;;
2023/04/11 06:19:52;;;;;;;;;18.50;14.50;;;;;10.53;73.23;100620.44;146620;582;46013;-83
2023/04/11 06:22:53;;;;;;;;;16.50;15.25;;;;;10.82;73.77;100665.06;146620;593;46020;-81
2023/04/11 06:26:03;;;;;;;;;16.00;15.00;;;;;10.88;73.36;100662.78;146618;725;46016;-82
2023/04/11 06:29:06;;;;;;;;;16.25;14.75;;;;;10.95;72.81;100669.16;146622;696;46011;-83
2023/04/11 06:32:00;;;;;;;;;12.00;11.50;;;;;11.00;72.75;100668.56;146620;636;46012;-83
2023/04/11 06:34:52;;;;;;;;;13.75;13.00;;;;;11.03;72.92;100670.44;146619;577;46011;-82
2023/04/11 06:37:51;;;;;;;;;17.75;11.00;;;;;11.06;72.72;100673.19;146620;573;46012;-75
2023/04/11 06:40:50;;;;;;;;;14.75;12.00;;;;;11.05;73.10;100671.37;146624;576;46010;-83
2023/04/11 06:44:02;;;;;;;;;13.25;12.00;;;;;11.08;72.60;100675.00;146618;607;46024;-83
2023/04/11 06:46:55;;;;;;;;;15.00;11.50;;;;;11.15;74.20;100678.78;146623;587;47010;-82
2023/04/11 06:49:54;;;;;;;;;15.25;11.25;;;;;11.20;73.00;100684.22;146619;579;46016;-81
2023/04/11 06:52:48;;;;;;;;;11.00;10.00;;;;;11.25;73.50;100678.44;146623;598;46010;-81
2023/04/11 06:56:10;;;;;;;;;13.75;11.00;;;;;11.32;74.00;100675.28;146621;588;45032;-79
2023/04/11 06:59:08;;;;;;;;;9.75;9.50;;;;;11.41;72.81;100676.56;146623;716;46021;-79
2023/04/11 07:02:08;;;;;;;;;12.50;9.25;;;;;10.22;72.41;100461.59;146619;597;46916;-78
2023/04/11 07:05:07;;;;;;;;;11.75;10.75;;;;;11.48;72.41;100669.09;146625;595;46015;-79
2023/04/11 07:08:00;;;;;;;;;13.75;9.75;;;;;11.54;72.06;100661.59;146619;600;47014;-83
2023/04/11 07:11:07;;;;;;;;;11.00;10.00;;;;;11.63;72.20;100652.47;146627;634;45043;-81
2023/04/11 07:14:09;;;;;;;;;13.50;12.00;;;;;11.08;72.07;100541.78;146618;594;46017;-79
2023/04/11 07:17:09;;;;;;;;;12.75;11.25;;;;;11.71;71.00;100641.63;146623;566;46020;-80
2023/04/11 07:20:35;;;;;;;;;13.25;10.50;;;;;11.83;69.34;100646.44;146621;648;46017;-80
2023/04/11 07:23:36;;;;;;;;;13.00;11.25;;;;;11.91;70.28;100641.66;146620;582;48010;-75
2023/04/11 07:26:37;;;;;;;;;12.00;12.00;;;;;12.04;70.14;100646.56;146620;564;46029;-80
2023/04/11 07:30:15;;;;;;;;;10.75;9.00;;;;;10.90;69.37;100416.41;146623;639;46020;-75
2023/04/11 07:33:29;;;;;;;;;13.50;11.00;;;;;12.25;68.92;100636.22;146622;580;45016;-81
2023/04/11 07:36:30;;;;;;;;;13.00;10.00;;;;;12.31;66.53;100633.87;146621;575;46021;-81
2023/04/11 07:39:24;;;;;;;;;12.25;10.50;;;;;12.33;66.75;100629.59;146619;587;46016;-77
2023/04/11 07:42:28;;;;;;;;;13.00;12.00;;;;;12.34;67.09;100626.22;146622;579;46021;-80
2023/04/11 07:45:44;;;;;;;;;;;;;;;;;;;;;
2023/04/11 07:48:53;;;;;;;;;10.75;10.00;;;;;12.41;66.51;100623.03;146624;577;46010;-79
2023/04/11 07:51:59;;;;;;;;;14.25;13.25;;;;;12.46;66.04;100613.72;146619;570;46012;-82
2023/04/11 07:54:56;;;;;;;;;10.50;9.00;;;;;12.51;64.54;100615.63;146616;612;47020;-84
2023/04/11 07:57:54;;;;;;;;;14.25;12.25;;;;;11.38;64.72;100412.50;146616;595;47017;-83
2023/04/11 08:00:49;;;;;;;;;12.75;11.00;;;;;12.60;65.37;100608.19;146624;599;46010;-86
2023/04/11 08:03:58;;;;;;;;;14.75;12.75;;;;;12.75;65.63;100610.53;146615;576;47035;-82
2023/04/11 08:07:02;;;;;;;;;11.00;11.00;;;;;11.42;63.65;100346.00;146621;614;46014;-79
2023/04/11 08:10:05;;;;;;;;;13.75;12.00;;;;;13.04;65.56;100598.69;146616;675;46016;-81
2023/04/11 08:13:17;;;;;;;;;17.75;15.25;;;;;13.04;64.69;100575.25;146623;569;46010;-80
2023/04/11 08:16:27;;;;;;;;;15.50;13.00;;;;;13.39;62.51;100603.56;146619;641;46016;-83
2023/04/11 08:19:22;;;;;;;;;15.75;11.50;;;;;13.60;64.11;100595.66;146621;573;47014;-83
2023/04/11 08:22:25;;;;;;;;;14.50;12.50;;;;;13.91;61.05;100606.31;146615;595;46012;-79
2023/04/11 08:25:24;;;;;;;;;16.25;14.75;;;;;14.12;60.15;100603.59;146624;649;46014;-80
2023/04/11 08:28:20;;;;;;;;;16.50;15.50;;;;;14.42;60.21;100599.41;146618;569;46012;-79
2023/04/11 08:31:35;;;;;;;;;;;;;;;;;;;;;
2023/04/11 08:34:43;;;;;;;;;15.25;13.00;;;;;15.11;59.72;100580.78;146620;564;47012;-78
2023/04/11 08:37:48;;;;;;;;;10.50;9.00;;;;;15.55;56.08;100580.31;146623;569;46010;-78
2023/04/11 08:40:43;;;;;;;;;12.75;11.00;;;;;15.88;54.51;100583.00;146620;632;46034;-85
2023/04/11 08:43:40;;;;;;;;;11.00;9.50;;;;;16.02;52.58;100586.03;146622;566;46014;-80
2023/04/11 08:46:57;;;;;;;;;16.50;13.75;;;;;14.90;56.39;100363.44;146620;610;46012;-80
2023/04/11 08:50:01;;;;;;;;;16.25;11.75;;;;;16.30;53.46;100579.78;146617;571;46021;-78
2023/04/11 08:53:18;;;;;;;;;13.00;11.75;;;;;16.45;53.81;100566.19;146618;633;46014;-81
2023/04/11 08:57:02;;;;;;;;;14.00;10.25;;;;;15.45;55.39;100363.19;146623;640;45021;-79
2023/04/11 09:00:17;;;;;;;;;18.50;15.25;;;;;16.87;54.93;100578.59;146618;554;46016;-80
2023/04/11 09:03:21;;;;;;;;;14.75;13.00;;;;;17.01;51.52;100569.31;146621;564;46010;-80
2023/04/11 09:06:20;;;;;;;;;11.00;11.00;;;;;17.15;48.80;100573.13;146618;577;47012;-81
2023/04/11 09:09:38;;;;;;;;;14.50;11.25;;;;;17.27;50.56;100578.63;146623;570;46020;-81
2023/04/11 09:12:44;;;;;;;;;18.25;14.25;;;;;17.38;50.13;100583.19;146618;584;46012;-80
2023/04/11 09:15:51;;;;;;;;;13.75;12.75;;;;;17.53;51.55;100568.69;146623;600;46034;-79
2023/04/11 09:18:49;;;;;;;;;11.25;11.25;;;;;17.73;50.61;100563.84;146619;665;46016;-79
2023/04/11 09:21:55;;;;;;;;;15.50;14.00;;;;;17.95;52.79;100572.16;146622;563;46020;-79
2023/04/11 09:25:05;;;;;;;;;10.75;9.25;;;;;18.16;49.51;100564.69;146619;649;46015;-77
2023/04/11 09:28:34;;;;;;;;;14.25;14.00;;;;;18.19;52.96;100561.22;146630;697;46014;-81
2023/04/11 09:31:52;;;;;;;;;15.50;12.00;;;;;18.44;53.23;100566.03;146617;653;46016;-80
2023/04/11 09:34:50;;;;;;;;;15.00;12.50;;;;;18.60;49.76;100558.44;146621;634;46010;-80
2023/04/11 09:38:03;;;;;;;;;12.25;11.25;;;;;18.60;49.31;100553.16;146618;582;46012;-81
2023/04/11 09:41:09;;;;;;;;;11.50;9.00;;;;;18.62;49.75;100552.31;146624;564;46011;-81
2023/04/11 09:44:09;;;;;;;;;10.00;8.67;;;;;18.78;50.39;100550.84;146622;648;46012;-79
2023/04/11 09:47:19;;;;;;;;;14.50;13.00;;;;;18.36;52.30;100451.28;146628;723;46010;-80
2023/04/11 09:50:24;;;;;;;;;13.50;12.00;;;;;19.04;50.26;100553.84;146621;571;46017;-80
2023/04/11 09:53:17;;;;;;;;;13.75;12.75;;;;;18.13;50.31;100359.97;146621;652;47010;-79
2023/04/11 09:56:27;;;;;;;;;15.75;11.25;;;;;19.50;47.76;100556.19;146617;637;46014;-81
2023/04/11 09:59:31;;;;;;;;;15.25;13.50;;;;;19.58;47.83;100542.28;146624;580;45020;-80
2023/04/11 10:02:27;;;;;;;;;15.00;12.00;;;;;19.51;47.21;100534.31;146615;627;47015;-80
2023/04/11 10:05:29;;;;;;;;;12.75;12.50;;;;;19.34;47.29;100537.59;146621;650;46021;-80
2023/04/11 10:08:40;;;;;;;;;15.50;14.50;;;;;19.31;48.28;100531.41;146617;571;46012;-81
2023/04/11 10:11:37;;;;;;;;;11.75;10.00;;;;;19.39;47.43;100530.66;146624;640;46010;-80
2023/04/11 10:15:03;;;;;;;;;12.50;9.75;;;;;19.43;48.17;100513.16;146620;636;46012;-81
2023/04/11 10:18:21;;;;;;;;;13.75;13.00;;;;;19.69;48.77;100531.94;146625;691;46015;-80
2023/04/11 10:21:56;;;;;;;;;13.50;12.25;;;;;19.75;52.04;100521.47;146617;674;46012;-82
2023/04/11 10:25:24;;;;;;;;;16.50;13.75;;;;;20.00;50.90;100530.50;146619;679;46021;-80
2023/04/11 10:28:39;;;;;;;;;14.75;12.00;;;;;20.18;48.21;100528.87;146617;670;46014;-80
2023/04/11 10:32:25;;;;;;;;;13.75;12.75;;;;;20.24;50.39;100545.59;146621;618;46020;-79
2023/04/11 10:35:33;;;;;;;;;12.50;11.75;;;;;20.23;49.23;100532.44;146619;689;46012;-80
2023/04/11 10:39:00;;;;;;;;;14.50;13.50;;;;;18.95;48.39;100333.03;146619;635;46020;-80
2023/04/11 10:41:53;;;;;;;;;12.25;10.25;;;;;19.96;46.57;100527.78;146620;695;46012;-79
2023/04/11 10:45:48;;;;;;;;;;;;;;;;;;;;;
2023/04/11 10:49:05;;;;;;;;;14.25;12.75;;;;;20.03;50.41;100505.94;146619;661;46012;-79
2023/04/11 10:52:32;;;;;;;;;13.75;13.00;;;;;20.19;50.36;100515.75;146622;583;46020;-80
2023/04/11 10:55:44;;;;;;;;;12.00;10.33;;;;;20.19;47.55;100504.34;146634;574;45013;-82
2023/04/11 10:59:02;;;;;;;;;14.75;11.50;;;;;19.60;48.56;100416.94;146634;571;46010;-81
2023/04/11 11:02:04;;;;;;;;;13.50;11.50;;;;;20.06;46.38;100511.22;146633;716;45016;-80
2023/04/11 11:05:22;;;;;;;;;12.00;11.25;;;;;19.86;48.45;100497.87;146635;597;45020;-80
2023/04/11 11:08:26;;;;;;;;;14.50;13.50;;;;;19.65;45.35;100508.19;146624;675;47916;-81
2023/04/11 11:11:28;;;;;;;;;13.00;10.75;;;;;19.37;47.85;100510.47;146634;564;46014;-81
2023/04/11 11:14:53;;;;;;;;;12.50;12.25;;;;;19.08;48.98;100508.34;146636;715;45016;-80
2023/04/11 11:18:02;;;;;;;;;14.00;11.75;;;;;18.78;50.14;100498.28;146637;669;45010;-79
2023/04/11 11:21:04;;;;;;;;;14.00;13.25;;;;;18.76;48.40;100504.41;146634;594;45016;-80
2023/04/11 11:24:07;;;;;;;;;19.00;14.75;;;;;18.71;48.76;100506.94;146634;598;45020;-80
2023/04/11 11:27:08;;;;;;;;;15.50;13.00;;;;;17.52;49.79;100306.53;146634;690;45017;-81
2023/04/11 11:30:15;;;;;;;;;21.75;18.75;;;;;18.54;51.18;100490.94;146639;609;45010;-81
2023/04/11 11:33:21;;;;;;;;;16.00;15.00;;;;;18.48;51.43;100484.72;146635;575;46013;-80
2023/04/11 11:36:15;;;;;;;;;18.50;11.25;;;;;18.61;47.54;100482.28;146635;566;46010;-78
2023/04/11 11:39:09;;;;;;;;;17.50;15.50;;;;;18.77;47.49;100478.16;146632;619;45016;-81
2023/04/11 11:42:03;;;;;;;;;14.75;14.75;;;;;18.92;47.09;100473.12;146635;569;45031;-81
2023/04/11 11:45:25;;;;;;;;;15.75;12.00;;;;;18.86;46.63;100452.00;146700;564;46022;-81
2023/04/11 11:48:29;;;;;;;;;12.00;11.50;;;;;18.87;46.13;100452.88;146611;648;46016;-82
2023/04/11 11:51:46;;;;;;;;;15.25;12.50;;;;;19.00;46.29;100456.56;146608;646;46010;-82
2023/04/11 11:54:53;;;;;;;;;14.00;12.50;;;;;19.08;46.06;100452.28;146605;563;46014;-81
2023/04/11 11:58:06;;;;;;;;;;;;;;;;;;;;;
2023/04/11 12:01:10;;;;;;;;;15.25;12.50;;;;;19.01;44.97;100440.81;146613;563;46016;-80
2023/04/11 12:04:17;;;;;;;;;14.00;11.75;;;;;18.87;48.40;100408.22;146606;596;47010;-83
2023/04/11 12:07:23;;;;;;;;;15.00;12.00;;;;;18.99;42.28;100437.28;146606;572;46918;-80
2023/04/11 12:11:03;;;;;;;;;15.25;12.75;;;;;18.76;48.16;100418.62;146611;569;46020;-80
2023/04/11 12:14:00;;;;;;;;;19.50;15.75;;;;;18.80;45.17;100428.28;146603;597;46918;-83
2023/04/11 12:17:07;;;;;;;;;24.00;20.25;;;;;18.79;46.95;100430.91;146605;594;47010;-81
2023/04/11 12:20:10;;;;;;;;;18.50;18.00;;;;;18.70;48.05;100431.62;146604;567;46016;-83
2023/04/11 12:23:10;;;;;;;;;14.25;13.50;;;;;18.58;47.52;100426.22;146609;633;46020;-82
2023/04/11 12:26:27;;;;;;;;;15.75;14.50;;;;;18.42;48.10;100420.75;146605;629;47012;-83
2023/04/11 12:29:23;;;;;;;;;28.00;26.00;;;;;18.22;49.35;100411.69;146610;572;46020;-83
2023/04/11 12:32:20;;;;;;;;;25.00;22.75;;;;;17.99;49.69;100417.44;146604;586;46012;-82
2023/04/11 12:35:21;;;;;;;;;30.50;27.75;;;;;17.76;48.69;100411.81;146607;651;46021;-86
2023/04/11 12:38:23;;;;;;;;;17.25;15.25;;;;;17.42;50.18;100412.94;146605;648;46016;-81
2023/04/11 12:41:28;;;;;;;;;25.75;21.50;;;;;17.04;53.84;100401.72;146607;585;47013;-82
2023/04/11 12:44:43;;;;;;;;;17.50;15.00;;;;;16.69;56.05;100386.13;146604;615;46012;-84
2023/04/11 12:47:57;;;;;;;;;13.25;12.25;;;;;16.56;56.62;100391.97;146610;673;46020;-82
2023/04/11 12:51:01;;;;;;;;;12.50;10.75;;;;;16.52;57.11;100400.63;146606;645;46017;-82
2023/04/11 12:53:56;;;;;;;;;23.25;21.00;;;;;16.56;58.18;100390.22;146607;589;46012;-83
2023/04/11 12:56:57;;;;;;;;;18.25;15.75;;;;;16.67;58.28;100385.25;146605;599;47012;-82
2023/04/11 12:59:58;;;;;;;;;10.50;10.50;;;;;16.85;57.24;100379.50;146608;616;47012;-80
2023/04/11 13:03:25;;;;;;;;;18.00;15.75;;;;;16.78;57.59;100343.59;146606;637;46016;-82
2023/04/11 13:06:29;;;;;;;;;16.00;14.50;;;;;17.21;56.79;100379.34;146606;602;46021;-78
2023/04/11 13:09:37;;;;;;;;;14.00;12.25;;;;;17.35;54.04;100349.88;146604;594;46016;-83
2023/04/11 13:12:48;;;;;;;;;;;;;;;;;;;;;
2023/04/11 13:15:52;;;;;;;;;20.00;16.25;;;;;17.67;53.01;100359.22;146605;610;46016;-81
2023/04/11 13:19:07;;;;;;;;;;;;;;;;;;;;;
2023/04/11 13:22:11;;;;;;;;;19.00;16.50;;;;;17.80;50.83;100346.31;146602;611;47913;-82
2023/04/11 13:25:09;;;;;;;;;18.75;18.00;;;;;17.87;51.65;100346.44;146610;577;46010;-84
2023/04/11 13:28:02;;;;;;;;;22.75;18.50;;;;;17.94;50.81;100339.53;146606;622;46017;-82
2023/04/11 13:31:00;;;;;;;;;16.25;14.50;;;;;18.03;49.03;100336.19;146612;589;46020;-84
2023/04/11 13:33:46;;;;;;;;;16.50;14.50;;;;;17.02;47.86;100147.62;146703;566;46023;-84
2023/04/11 13:36:58;;;;;;;;;16.25;15.25;;;;;18.22;50.63;100328.59;146620;580;46014;-83
2023/04/11 13:40:09;;;;;;;;;14.00;13.50;;;;;18.26;47.83;100321.66;146623;608;45021;-83
2023/04/11 13:43:22;;;;;;;;;13.25;13.00;;;;;18.19;49.48;100331.19;146620;622;46012;-83
2023/04/11 13:46:32;;;;;;;;;16.00;13.50;;;;;17.71;50.37;100257.87;146620;580;45020;-84
2023/04/11 13:49:41;;;;;;;;;16.50;16.00;;;;;18.03;49.56;100329.19;146617;615;46016;-83
2023/04/11 13:52:39;;;;;;;;;12.50;11.75;;;;;17.94;47.48;100326.41;146620;569;47014;-86
2023/04/11 13:55:51;;;;;;;;;;;;;;;;;;;;;
2023/04/11 13:59:07;;;;;;;;;10.75;10.00;;;;;17.82;48.47;100327.16;146619;613;46010;-80
2023/04/11 14:02:19;;;;;;;;;19.25;18.50;;;;;17.77;50.47;100331.41;146615;564;46017;-82
2023/04/11 14:05:31;;;;;;;;;19.00;17.00;;;;;17.73;48.31;100327.84;146621;591;46020;-76
2023/04/11 14:08:30;;;;;;;;;19.25;17.25;;;;;17.72;47.28;100327.78;146618;573;46916;-80
2023/04/11 14:11:34;;;;;;;;;23.25;18.00;;;;;17.72;49.03;100326.06;146619;605;46021;-82
2023/04/11 14:14:46;;;;;;;;;;;;;;;;;;;;;
2023/04/11 14:17:45;;;;;;;;;22.25;20.75;;;;;17.85;48.48;100324.56;146619;564;46020;-85
2023/04/11 14:20:32;;;;;;;;;23.75;21.50;;;;;17.87;47.71;100325.44;146707;566;46022;-84
2023/04/11 14:23:40;;;;;;;;;22.00;20.00;;;;;17.92;47.84;100329.03;146619;577;46017;-85
2023/04/11 14:26:43;;;;;;;;;20.25;19.00;;;;;17.96;47.56;100319.47;146622;608;46020;-85
2023/04/11 14:29:42;;;;;;;;;38.75;31.75;;;;;17.98;47.85;100318.63;146618;602;46017;-84
2023/04/11 14:33:06;;;;;;;;;21.50;19.25;;;;;16.88;49.61;100111.59;146621;629;46020;-72
2023/04/11 14:36:08;;;;;;;;;26.75;26.50;;;;;18.07;46.50;100306.50;146618;579;49014;-78
2023/04/11 14:39:08;;;;;;;;;15.25;13.50;;;;;18.06;44.58;100308.22;146624;669;46010;-77